createdAt,value
2019-02-09T00:00:07.274Z,6.97
2019-02-09T00:02:45.660Z,6.63
2019-02-09T00:05:21.246Z,9.10
2019-02-09T00:07:52.291Z,7.53
2019-02-09T00:10:31.477Z,7.97
2019-02-09T00:13:06.779Z,7.63
2019-02-09T00:15:38.838Z,8.70
2019-02-09T00:18:12.202Z,8.33
2019-02-09T00:20:45.162Z,8.77
2019-02-09T00:23:19.673Z,8.20
2019-02-09T00:25:54.226Z,7.97
2019-02-09T00:28:26.542Z,9.47
2019-02-09T00:30:57.472Z,8.73
2019-02-09T00:33:30.339Z,9.40
2019-02-09T00:36:01.255Z,9.03
2019-02-09T00:38:31.977Z,9.30
2019-02-09T00:41:20.431Z,9.67
2019-02-09T00:43:54.333Z,9.03
2019-02-09T00:46:32.587Z,8.90
2019-02-09T00:49:03.691Z,9.17
2019-02-09T00:51:34.515Z,9.37
2019-02-09T00:54:07.696Z,9.00
2019-02-09T00:56:41.537Z,7.97
2019-02-09T00:59:18.308Z,9.10
2019-02-09T01:01:53.462Z,8.77
2019-02-09T01:04:26.693Z,9.73
2019-02-09T01:06:57.548Z,8.83
2019-02-09T01:09:28.012Z,9.83
2019-02-09T01:11:58.557Z,9.70
2019-02-09T01:14:28.886Z,9.10
2019-02-09T01:17:00.280Z,10.03
2019-02-09T01:19:30.976Z,10.20
2019-02-09T01:22:01.320Z,9.13
2019-02-09T01:24:31.839Z,9.60
2019-02-09T01:27:03.453Z,9.80
2019-02-09T01:29:38.748Z,10.57
2019-02-09T01:32:09.779Z,9.27
2019-02-09T01:34:40.335Z,10.33
2019-02-09T01:37:11.487Z,10.13
2019-02-09T01:39:47.307Z,9.77
2019-02-09T01:42:14.716Z,9.40
2019-02-09T01:44:45.150Z,8.57
2019-02-09T01:47:17.160Z,9.67
2019-02-09T01:49:48.034Z,10.17
2019-02-09T01:52:18.836Z,9.87
2019-02-09T01:54:50.865Z,9.43
2019-02-09T01:57:23.199Z,8.87
2019-02-09T01:59:54.168Z,9.20
2019-02-09T02:02:43.770Z,8.90
2019-02-09T02:05:15.706Z,9.50
2019-02-09T02:07:48.236Z,9.87
2019-02-09T02:10:27.470Z,9.00
2019-02-09T02:13:00.034Z,9.43
2019-02-09T02:15:31.368Z,9.23
2019-02-09T02:18:04.324Z,9.43
2019-02-09T02:20:34.904Z,9.50
2019-02-09T02:23:06.860Z,10.10
2019-02-09T02:25:38.757Z,10.30
2019-02-09T02:28:09.133Z,9.73
2019-02-09T02:30:40.042Z,10.43
2019-02-09T02:33:10.912Z,10.00
2019-02-09T02:35:41.337Z,9.80
2019-02-09T02:38:11.831Z,10.03
2019-02-09T02:40:42.391Z,10.97
2019-02-09T02:43:18.174Z,10.13
2019-02-09T02:45:48.733Z,9.53
2019-02-09T02:48:20.936Z,9.93
2019-02-09T02:50:54.190Z,9.97
2019-02-09T02:53:24.659Z,10.23
2019-02-09T02:55:57.373Z,9.77
2019-02-09T02:58:30.832Z,9.40
2019-02-09T03:01:00.985Z,8.60
2019-02-09T03:03:32.585Z,10.37
2019-02-09T03:06:03.327Z,9.17
2019-02-09T03:08:35.554Z,9.20
2019-02-09T03:11:09.554Z,9.60
2019-02-09T03:13:40.280Z,8.70
2019-02-09T03:16:16.959Z,8.90
2019-02-09T03:18:47.476Z,9.70
2019-02-09T03:21:18.967Z,8.67
2019-02-09T03:23:53.879Z,9.37
2019-02-09T03:26:23.594Z,9.63
2019-02-09T03:28:57.659Z,8.87
2019-02-09T03:31:35.979Z,9.20
2019-02-09T03:34:06.805Z,9.03
2019-02-09T03:36:38.756Z,8.90
2019-02-09T03:39:10.265Z,9.37
2019-02-09T03:41:40.792Z,8.70
2019-02-09T03:44:12.722Z,8.87
2019-02-09T03:46:46.010Z,8.27
2019-02-09T03:49:16.746Z,8.57
2019-02-09T03:51:50.734Z,8.00
2019-02-09T03:54:20.802Z,6.30
2019-02-09T03:56:52.121Z,8.00
2019-02-09T03:59:25.869Z,8.40
2019-02-09T04:01:58.291Z,8.53
2019-02-09T04:04:30.783Z,7.93
2019-02-09T04:07:03.739Z,7.97
2019-02-09T04:09:34.943Z,8.10
2019-02-09T04:12:08.292Z,8.00
2019-02-09T04:14:39.227Z,8.50
2019-02-09T04:17:09.801Z,8.47
2019-02-09T04:19:45.030Z,7.30
2019-02-09T04:22:15.544Z,8.73
2019-02-09T04:24:56.869Z,8.57
2019-02-09T04:27:28.520Z,8.23
2019-02-09T04:29:59.376Z,8.53
2019-02-09T04:32:30.235Z,8.80
2019-02-09T04:35:02.246Z,9.30
2019-02-09T04:37:34.960Z,8.73
2019-02-09T04:40:07.941Z,8.83
2019-02-09T04:42:39.771Z,8.77
2019-02-09T04:45:13.024Z,9.23
2019-02-09T04:47:43.995Z,9.07
2019-02-09T04:50:15.584Z,8.43
2019-02-09T04:52:49.491Z,10.47
2019-02-09T04:55:21.929Z,9.53
2019-02-09T04:57:52.929Z,9.53
2019-02-09T05:00:30.340Z,9.80
2019-02-09T05:03:05.496Z,9.60
2019-02-09T05:05:36.571Z,9.50
2019-02-09T05:08:11.708Z,10.30
2019-02-09T05:10:46.177Z,9.43
2019-02-09T05:13:18.402Z,10.07
2019-02-09T05:15:49.405Z,9.10
2019-02-09T05:18:20.110Z,9.17
2019-02-09T05:20:50.652Z,9.47
2019-02-09T05:23:21.612Z,9.70
2019-02-09T05:25:56.215Z,8.80
2019-02-09T05:28:26.929Z,8.77
2019-02-09T05:30:57.697Z,9.17
2019-02-09T05:33:30.804Z,9.57
2019-02-09T05:36:01.547Z,9.40
2019-02-09T05:38:32.265Z,9.37
2019-02-09T05:41:02.994Z,8.47
2019-02-09T05:43:33.611Z,9.27
2019-02-09T05:46:05.018Z,9.80
2019-02-09T05:48:35.867Z,9.47
2019-02-09T05:51:07.368Z,9.70
2019-02-09T05:53:39.967Z,8.60
2019-02-09T05:56:10.373Z,9.33
2019-02-09T05:58:44.886Z,9.17
2019-02-09T06:01:16.634Z,9.10
2019-02-09T06:03:47.270Z,9.03
2019-02-09T06:06:20.848Z,9.80
2019-02-09T06:08:51.426Z,10.00
2019-02-09T06:11:24.624Z,9.73
2019-02-09T06:13:55.621Z,10.30
2019-02-09T06:16:26.869Z,9.13
2019-02-09T06:18:58.757Z,9.70
2019-02-09T06:21:33.242Z,11.07
2019-02-09T06:24:09.275Z,9.93
2019-02-09T06:26:44.025Z,10.00
2019-02-09T06:29:14.961Z,10.23
2019-02-09T06:31:45.810Z,11.10
2019-02-09T06:34:16.806Z,11.47
2019-02-09T06:37:00.427Z,11.93
2019-02-09T06:39:31.179Z,12.83
2019-02-09T06:42:03.514Z,13.47
2019-02-09T06:44:37.089Z,12.37
2019-02-09T06:47:19.401Z,12.23
2019-02-09T06:49:55.185Z,13.80
2019-02-09T06:52:44.063Z,11.17
2019-02-09T06:55:25.892Z,13.13
2019-02-09T06:57:56.868Z,14.10
2019-02-09T07:00:31.050Z,14.13
2019-02-09T07:03:03.049Z,14.30
2019-02-09T07:05:40.319Z,13.60
2019-02-09T07:08:12.973Z,13.77
2019-02-09T07:10:45.968Z,13.73
2019-02-09T07:13:25.427Z,14.47
2019-02-09T07:15:56.381Z,14.70
2019-02-09T07:18:27.730Z,14.67
2019-02-09T07:21:04.216Z,13.83
2019-02-09T07:23:35.185Z,14.30
2019-02-09T07:26:07.996Z,13.70
2019-02-09T07:28:45.837Z,15.07
2019-02-09T07:31:28.138Z,14.17
2019-02-09T07:34:00.483Z,14.00
2019-02-09T07:36:41.490Z,14.33
2019-02-09T07:39:14.578Z,15.50
2019-02-09T07:41:47.130Z,15.00
2019-02-09T07:44:29.016Z,16.03
2019-02-09T07:46:56.764Z,14.93
2019-02-09T07:49:33.436Z,16.07
2019-02-09T07:52:06.894Z,16.73
2019-02-09T07:54:39.814Z,14.73
2019-02-09T07:57:16.009Z,14.57
2019-02-09T07:59:46.875Z,14.60
2019-02-09T08:02:17.608Z,14.23
2019-02-09T08:04:59.216Z,14.30
2019-02-09T08:07:37.514Z,15.13
2019-02-09T08:10:36.162Z,14.80
2019-02-09T08:13:08.928Z,14.33
2019-02-09T08:15:46.199Z,15.50
2019-02-09T08:18:42.758Z,15.20
2019-02-09T08:21:20.779Z,14.47
2019-02-09T08:23:52.982Z,14.80
2019-02-09T08:26:36.059Z,15.30
2019-02-09T08:29:19.177Z,14.37
2019-02-09T08:31:44.594Z,13.87
2019-02-09T08:34:20.465Z,14.27
2019-02-09T08:36:56.060Z,13.50
2019-02-09T08:39:31.607Z,14.17
2019-02-09T08:42:11.400Z,14.27
2019-02-09T08:44:45.853Z,15.00
2019-02-09T08:47:47.325Z,13.97
2019-02-09T08:50:10.798Z,15.07
2019-02-09T08:53:33.019Z,13.90
2019-02-09T08:55:54.409Z,14.07
2019-02-09T08:58:52.424Z,15.17
2019-02-09T09:01:55.132Z,14.27
2019-02-09T09:10:55.983Z,15.57
2019-02-09T09:13:34.592Z,15.37
2019-02-09T09:16:12.710Z,15.40
2019-02-09T09:18:53.990Z,15.77
2019-02-09T09:21:43.771Z,13.83
2019-02-09T09:24:11.817Z,15.43
2019-02-09T09:26:48.060Z,15.40
2019-02-09T09:29:41.229Z,14.60
2019-02-09T09:32:12.717Z,15.40
2019-02-09T09:34:41.823Z,14.90
2019-02-09T09:37:20.629Z,13.07
2019-02-09T09:39:56.610Z,15.80
2019-02-09T09:42:31.176Z,14.53
2019-02-09T09:45:09.227Z,15.23
2019-02-09T09:47:48.240Z,14.27
2019-02-09T09:50:22.759Z,14.43
2019-02-09T09:52:57.092Z,15.03
2019-02-09T09:55:31.521Z,16.77
2019-02-09T09:58:07.255Z,15.13
2019-02-09T10:00:43.482Z,15.63
2019-02-09T10:03:14.121Z,13.87
2019-02-09T10:05:50.236Z,13.83
2019-02-09T10:08:28.346Z,13.33
2019-02-09T10:11:08.746Z,13.00
2019-02-09T10:13:41.841Z,12.80
2019-02-09T10:16:19.841Z,12.50
2019-02-09T10:18:55.269Z,12.87
2019-02-09T10:22:16.828Z,13.53
2019-02-09T10:24:04.742Z,12.60
2019-02-09T10:26:42.394Z,13.33
2019-02-09T10:29:16.222Z,14.23
2019-02-09T10:31:58.821Z,13.13
2019-02-09T10:34:35.471Z,13.80
2019-02-09T10:37:32.287Z,13.33
2019-02-09T10:39:49.277Z,12.93
2019-02-09T10:42:27.818Z,12.90
2019-02-09T10:45:04.427Z,12.43
2019-02-09T10:47:54.715Z,13.37
2019-02-09T10:50:56.649Z,12.43
2019-02-09T10:53:35.446Z,13.43
2019-02-09T10:56:14.755Z,11.97
2019-02-09T10:58:50.464Z,11.87
2019-02-09T11:01:39.159Z,12.17
2019-02-09T11:04:34.568Z,11.30
2019-02-09T11:07:27.451Z,10.87
2019-02-09T11:10:29.297Z,10.23
2019-02-09T11:13:06.211Z,11.40
2019-02-09T11:16:05.739Z,10.60
2019-02-09T11:18:41.670Z,11.00
2019-02-09T11:21:14.691Z,10.67
2019-02-09T11:23:53.053Z,10.17
2019-02-09T11:26:24.111Z,9.67
2019-02-09T11:29:13.488Z,11.45
2019-02-09T11:31:52.911Z,9.73
2019-02-09T11:35:06.990Z,10.23
2019-02-09T11:37:47.116Z,10.37
2019-02-09T11:40:53.499Z,10.10
2019-02-09T11:44:28.884Z,9.47
2019-02-09T11:50:12.910Z,10.60
2019-02-09T11:55:23.539Z,10.10
2019-02-09T11:57:57.931Z,9.97
2019-02-09T12:00:40.566Z,9.87
2019-02-09T12:03:26.120Z,9.83
2019-02-09T12:06:15.082Z,10.97
2019-02-09T12:08:53.906Z,10.53
2019-02-09T12:11:43.632Z,11.23
2019-02-09T12:14:53.329Z,10.60
2019-02-09T12:21:56.061Z,10.97
2019-02-09T12:24:54.008Z,11.13
2019-02-09T12:34:29.349Z,10.53
2019-02-09T12:54:37.653Z,11.37
2019-02-09T13:21:33.589Z,10.40
2019-02-09T13:24:11.206Z,9.83
2019-02-09T13:26:53.157Z,11.10
2019-02-09T13:29:45.104Z,10.27
2019-02-09T13:32:24.011Z,10.53
2019-02-09T13:35:06.243Z,10.67
2019-02-09T13:37:40.931Z,10.23
2019-02-09T13:40:34.820Z,10.20
2019-02-09T13:43:18.986Z,9.43
2019-02-09T13:46:35.738Z,9.20
2019-02-09T14:02:39.785Z,8.20
2019-02-09T14:05:17.763Z,8.20
2019-02-09T14:08:16.034Z,8.70
2019-02-09T14:15:01.583Z,7.37
2019-02-09T14:32:33.865Z,6.93
2019-02-09T14:38:14.836Z,7.50
2019-02-09T14:40:56.438Z,6.23
2019-02-09T14:44:18.170Z,7.27
2019-02-09T14:47:45.882Z,7.40
2019-02-09T14:50:45.196Z,6.83
2019-02-09T14:56:18.428Z,6.90
2019-02-09T14:59:37.718Z,7.27
2019-02-09T15:09:55.704Z,7.83
2019-02-09T15:16:50.703Z,7.83
2019-02-09T15:21:16.019Z,8.07
2019-02-09T15:44:18.363Z,9.37
2019-02-09T16:01:55.220Z,11.07
2019-02-09T16:08:19.791Z,14.10
2019-02-09T16:14:23.817Z,13.10
2019-02-09T16:16:56.163Z,12.50
2019-02-09T16:24:15.113Z,18.23
2019-02-09T16:35:56.356Z,15.00
2019-02-09T16:38:56.438Z,27.37
2019-02-09T16:46:19.812Z,12.70
2019-02-09T16:52:34.549Z,12.37
2019-02-09T16:59:04.161Z,10.53
2019-02-09T17:05:01.078Z,12.00
2019-02-09T17:07:59.510Z,11.13
2019-02-09T17:11:20.861Z,12.07
2019-02-09T17:25:47.700Z,9.83
2019-02-09T17:44:45.091Z,10.13
